메인 페이지
METAR-TAF:

METAR-TAF

공항 :

Hurlburt Field

Mary Esther, 플로리다, 미국

위도: 30-25N, 경도: 086-41W, 고도: 12m

현재 날씨관측

예보는 13분 전, 01:56시(UTC)에 발표되었습니다.
무풍
온도 27°C
습도 79%
기압 1018 hPa
시정: 16.1km
맑음

METAR: KHRT 250156Z 00000KT 10SM CLR 27/23 A3007 RMK AO2A SLP184 T02650227 $

시각: 21:09 (02:09 UTC)

예보

예보는 5 시간 9분 전, 21:00시(UTC)에 발표되었습니다.
예보 대상 시간: 24일 18시부터 25일 24시까지 (UTC)
9kt
시정 10km 이상
맑음
전환 중
25일 01시부터 25일 01시까지 (UTC)
여러 방향의 바람 6kt
시정 10km 이상
맑음
전환 중
25일 17시부터 25일 18시까지 (UTC)
남남서10kt
시정: 2810m
고도 4000ft 상공 구름 조금

TAF: KHRT 242100Z 2418/2524 17009KT 9999 SKC QNH3009INS BECMG 2501/2501 VRB06KT 9999 SKC QNH3009INS BECMG 2517/2518 21010KT 9999 FEW040 QNH3007INS TX29/2520Z TN20/2511Z LAST NO AMDS AFT 2501 NEXT 2810

4,000개 이상의 공항 관측 자료 및 예보 (METAR 및 TAF 보고).

지도상에서 검색 가능한 기상관측소가 노란 점과 빨간 점으로 표시되어 있습니다.

기상관측소 명을 보려면 표시 위로 마우스를 이동하세요.

날씨 관측과 예보를 보려면 클릭하세요.

지도 변경 : 확대하려면 엑스 표시가 있는 녹색 버튼, 축소하려면 빼기 표시가 있는 녹색 버튼, 다음 페이지의 지도를 보려면 녹색 화살표를 클릭하세요.


METAR-TAF: